Stark, New Hampshire
Current Conditions -  °F | °C
As of 8:52 AM on Monday 20 Oct 2014 (Local Time) from KBML Reporting Station
Scattered Clouds Scattered Clouds  
Wind Chill: 31°   Ceiling: Unl
Heat Index: 36°   Visibility: 10mi
Dew Point: 25°   Wind: 6mph
Humidity: 64%   Direction: 270°W
Pressure: 29.96"   Gusts: NA
Location:  44.6154°N, 71.467°W
Report Text: KBML 201252Z AUTO 27005KT 10SM SCT033 02/M04 A2996 RMK AO2 SLP156 T00221039
Loading
Personal Weather Stations






























Interactive Weather Map
Tropical Storm Tracking
New forecast layout! Learn more

10-Day Weather Forecast

Advertisements
Track Severe Weather on mobile